Alliance, Ohio
Current Conditions -  °F | °C
As of 9:51 AM on Friday 31 Oct 2014 (Local Time) from KCAK Reporting Station
Overcast Overcast  
Wind Chill:   Ceiling: 3800
Heat Index:   Visibility: 10mi
Dew Point:   Wind: 10mph
Humidity: 71%   Direction: 200°SSW
Pressure: 29.93"   Gusts: NA
Location:  40.92°N, 81.1°W
Report Text: KCAK 311351Z 20009KT 10SM BKN038 OVC070 07/02 A2993 RMK AO2 SLP140 T00720022
Loading
Personal Weather Stations






























Interactive Weather Map
Tropical Storm Tracking
New forecast layout! Learn more

10-Day Weather Forecast

Advertisements
Track Severe Weather on mobile